Time,TemperatureF,DewpointF,PressureIn,WindDirection,WindDirectionDegrees,WindSpeedMPH,WindSpeedGustMPH,Humidity,HourlyPrecipIn,Conditions,Clouds,dailyrainin,SolarRadiationWatts/m^2,SoftwareType,DateUTC
2013-07-18 00:01:00,79.0,74.8,30.14,SSW,208,0.0,0.0,87,0.00,BKN,,0.01,0.0,WeatherDisplay:10.37,2013-07-18 04:01:00,
2013-07-18 00:11:00,78.8,74.6,30.12,SSW,209,0.0,0.0,87,0.00,BKN,,0.01,0.0,WeatherDisplay:10.37,2013-07-18 04:11:00,
2013-07-18 00:16:00,78.8,74.6,30.12,SSW,204,0.0,0.0,87,0.00,BKN,,0.01,0.0,WeatherDisplay:10.37,2013-07-18 04:16:00,
2013-07-18 00:21:00,78.6,74.4,30.12,SSW,198,0.0,0.0,87,0.00,BKN,,0.01,0.0,WeatherDisplay:10.37,2013-07-18 04:21:00,
2013-07-18 00:26:00,78.6,74.4,30.12,SSW,198,0.0,0.0,87,0.00,BKN,,0.01,0.0,WeatherDisplay:10.37,2013-07-18 04:26:00,
2013-07-18 00:31:00,78.6,74.4,30.12,SSE,156,0.0,1.0,87,0.00,BKN,,0.01,0.0,WeatherDisplay:10.37,2013-07-18 04:31:00,
2013-07-18 00:36:00,78.6,74.4,30.12,ENE,63,0.0,0.0,87,0.00,BKN,,0.01,0.0,WeatherDisplay:10.37,2013-07-18 04:36:00,
2013-07-18 00:41:00,78.6,74.4,30.12,ENE,63,0.0,0.0,87,0.00,BKN,,0.01,0.0,WeatherDisplay:10.37,2013-07-18 04:41:00,
2013-07-18 00:46:00,78.6,74.4,30.12,NE,56,0.0,2.0,87,0.00,BKN,,0.01,0.0,WeatherDisplay:10.37,2013-07-18 04:46:00,
2013-07-18 00:51:00,78.6,74.4,30.12,NNW,336,0.0,0.0,87,0.00,BKN,,0.01,0.0,WeatherDisplay:10.37,2013-07-18 04:51:00,
2013-07-18 00:56:00,78.6,74.4,30.12,WNW,295,0.0,0.0,87,0.00,BKN,,0.01,0.0,WeatherDisplay:10.37,2013-07-18 04:56:00,
2013-07-18 01:01:00,78.6,74.4,30.12,WNW,295,0.0,0.0,87,0.00,RA,,0.00,0.0,WeatherDisplay:10.37,2013-07-18 05:01:00,
2013-07-18 01:11:00,78.5,74.3,30.12,WNW,295,0.0,0.0,87,0.00,BKN,,0.00,0.0,WeatherDisplay:10.37,2013-07-18 05:11:00,
2013-07-18 01:16:00,78.5,74.3,30.12,WNW,295,0.0,0.0,87,0.00,BKN,,0.00,0.0,WeatherDisplay:10.37,2013-07-18 05:16:00,
2013-07-18 01:21:00,78.5,74.3,30.12,WNW,295,0.0,0.0,87,0.00,BKN,,0.00,0.0,WeatherDisplay:10.37,2013-07-18 05:21:00,
2013-07-18 01:26:00,78.5,74.3,30.12,WNW,295,0.0,0.0,87,0.00,BKN,,0.00,0.0,WeatherDisplay:10.37,2013-07-18 05:26:00,
2013-07-18 01:31:00,78.3,74.1,30.12,WNW,303,0.0,0.0,87,0.00,BKN,,0.00,0.0,WeatherDisplay:10.37,2013-07-18 05:31:00,
2013-07-18 01:36:00,78.3,74.1,30.12,NW,311,0.0,0.0,87,0.00,BKN,,0.00,0.0,WeatherDisplay:10.37,2013-07-18 05:36:00,
2013-07-18 01:41:00,78.3,74.5,30.12,NW,311,0.0,0.0,88,0.00,BKN,,0.00,0.0,WeatherDisplay:10.37,2013-07-18 05:41:00,
2013-07-18 01:46:00,78.1,74.3,30.12,NW,311,0.0,0.0,88,0.00,BKN,,0.00,0.0,WeatherDisplay:10.37,2013-07-18 05:46:00,
2013-07-18 01:51:00,78.1,74.3,30.12,NW,311,0.0,0.0,88,0.00,BKN,,0.00,0.0,WeatherDisplay:10.37,2013-07-18 05:51:00,
2013-07-18 01:56:00,78.1,74.3,30.12,NW,323,0.0,0.0,88,0.00,BKN,,0.00,0.0,WeatherDisplay:10.37,2013-07-18 05:56:00,
2013-07-18 02:01:00,78.1,74.3,30.12,NNW,335,0.0,0.0,88,0.00,BKN,,0.00,0.0,WeatherDisplay:10.37,2013-07-18 06:01:00,
2013-07-18 02:11:00,77.9,74.1,30.12,NNW,335,0.0,0.0,88,0.00,BKN,,0.00,0.0,WeatherDisplay:10.37,2013-07-18 06:11:00,
2013-07-18 02:16:00,77.9,74.1,30.12,NNW,335,0.0,0.0,88,0.00,BKN,,0.00,0.0,WeatherDisplay:10.37,2013-07-18 06:16:00,
2013-07-18 02:21:00,77.8,74.3,30.12,NNW,335,0.0,0.0,89,0.00,BKN,,0.00,0.0,WeatherDisplay:10.37,2013-07-18 06:21:00,
2013-07-18 02:26:00,77.7,74.2,30.12,NNW,335,0.0,0.0,89,0.00,BKN,,0.00,0.0,WeatherDisplay:10.37,2013-07-18 06:26:00,
2013-07-18 02:31:00,77.7,74.2,30.12,NNW,335,0.0,0.0,89,0.00,BKN,,0.00,0.0,WeatherDisplay:10.37,2013-07-18 06:31:00,
2013-07-18 02:36:00,77.7,74.2,30.12,NNW,335,0.0,0.0,89,0.00,BKN,,0.00,0.0,WeatherDisplay:10.37,2013-07-18 06:36:00,
2013-07-18 02:41:00,77.6,74.1,30.12,NNW,335,0.0,0.0,89,0.00,BKN,,0.00,0.0,WeatherDisplay:10.37,2013-07-18 06:41:00,
2013-07-18 02:46:00,77.6,74.1,30.12,NNW,335,0.0,0.0,89,0.00,BKN,,0.00,0.0,WeatherDisplay:10.37,2013-07-18 06:46:00,
2013-07-18 02:51:00,77.6,74.1,30.11,NNW,335,0.0,0.0,89,0.00,BKN,,0.00,0.0,WeatherDisplay:10.37,2013-07-18 06:51:00,
2013-07-18 02:56:00,77.6,74.4,30.11,NNW,335,0.0,0.0,90,0.00,BKN,,0.00,0.0,WeatherDisplay:10.37,2013-07-18 06:56:00,
2013-07-18 03:01:00,77.6,74.4,30.11,NNW,335,0.0,0.0,90,0.00,BKN,,0.00,0.0,WeatherDisplay:10.37,2013-07-18 07:01:00,
2013-07-18 03:11:00,77.5,74.4,30.10,NNW,335,0.0,0.0,90,0.00,BKN,,0.00,0.0,WeatherDisplay:10.37,2013-07-18 07:11:00,
2013-07-18 03:16:00,77.6,74.8,30.10,NNW,335,0.0,0.0,91,0.00,BKN,,0.00,0.0,WeatherDisplay:10.37,2013-07-18 07:16:00,
2013-07-18 03:21:00,77.6,74.8,30.10,NNW,335,0.0,0.0,91,0.00,BKN,,0.00,0.0,WeatherDisplay:10.37,2013-07-18 07:21:00,
2013-07-18 03:26:00,77.6,74.8,30.10,NNW,335,0.0,0.0,91,0.00,BKN,,0.00,0.0,WeatherDisplay:10.37,2013-07-18 07:26:00,
2013-07-18 03:31:00,77.6,74.8,30.10,NNW,335,0.0,0.0,91,0.00,BKN,,0.00,0.0,WeatherDisplay:10.37,2013-07-18 07:31:00,
2013-07-18 03:36:00,77.6,74.8,30.10,NNW,335,0.0,0.0,91,0.00,BKN,,0.00,0.0,WeatherDisplay:10.37,2013-07-18 07:36:00,
2013-07-18 03:41:00,77.6,74.8,30.10,NNW,335,0.0,0.0,91,0.00,BKN,,0.00,0.0,WeatherDisplay:10.37,2013-07-18 07:41:00,
2013-07-18 03:46:00,77.4,74.6,30.10,NNW,335,0.0,0.0,91,0.00,BKN,,0.00,0.0,WeatherDisplay:10.37,2013-07-18 07:46:00,
2013-07-18 03:51:00,77.4,74.6,30.10,NNW,335,0.0,0.0,91,0.00,BKN,,0.00,0.0,WeatherDisplay:10.37,2013-07-18 07:51:00,
2013-07-18 03:56:00,77.4,74.6,30.10,NNW,335,0.0,0.0,91,0.00,BKN,,0.00,0.0,WeatherDisplay:10.37,2013-07-18 07:56:00,
2013-07-18 04:01:00,77.4,74.6,30.10,NNW,335,0.0,0.0,91,0.00,BKN,,0.00,0.0,WeatherDisplay:10.37,2013-07-18 08:01:00,
2013-07-18 04:11:00,77.4,74.9,30.09,NNW,335,0.0,0.0,92,0.00,BKN,,0.00,0.0,WeatherDisplay:10.37,2013-07-18 08:11:00,
2013-07-18 04:16:00,77.2,74.7,30.09,NNW,335,0.0,0.0,92,0.00,BKN,,0.00,0.0,WeatherDisplay:10.37,2013-07-18 08:16:00,
2013-07-18 04:21:00,77.2,74.7,30.09,NNW,335,0.0,0.0,92,0.00,BKN,,0.00,0.0,WeatherDisplay:10.37,2013-07-18 08:21:00,
2013-07-18 04:26:00,77.2,74.7,30.09,NNW,335,0.0,0.0,92,0.00,BKN,,0.00,0.0,WeatherDisplay:10.37,2013-07-18 08:26:00,
2013-07-18 04:31:00,77.2,74.7,30.09,NNW,335,0.0,0.0,92,0.00,BKN,,0.00,0.0,WeatherDisplay:10.37,2013-07-18 08:31:00,
2013-07-18 04:36:00,77.0,74.5,30.09,NNW,335,0.0,0.0,92,0.00,BKN,,0.00,0.0,WeatherDisplay:10.37,2013-07-18 08:36:00,
2013-07-18 04:41:00,77.0,74.5,30.09,NNW,335,0.0,0.0,92,0.00,BKN,,0.00,0.0,WeatherDisplay:10.37,2013-07-18 08:41:00,
2013-07-18 04:46:00,77.0,74.5,30.09,NNW,335,0.0,0.0,92,0.00,BKN,,0.00,0.0,WeatherDisplay:10.37,2013-07-18 08:46:00,
2013-07-18 04:51:00,77.0,74.8,30.09,NNW,335,0.0,0.0,93,0.00,BKN,,0.00,0.0,WeatherDisplay:10.37,2013-07-18 08:51:00,
2013-07-18 04:56:00,77.0,74.8,30.09,NNW,335,0.0,0.0,93,0.00,BKN,,0.00,0.0,WeatherDisplay:10.37,2013-07-18 08:56:00,
2013-07-18 05:01:00,77.2,75.0,30.09,NNW,335,0.0,0.0,93,0.00,SCT,,0.00,0.0,WeatherDisplay:10.37,2013-07-18 09:01:00,
2013-07-18 05:11:00,77.0,75.1,30.10,NNW,335,0.0,0.0,94,0.00,SCT,,0.00,0.0,WeatherDisplay:10.37,2013-07-18 09:11:00,
2013-07-18 05:16:00,77.0,75.1,30.10,NNW,335,0.0,0.0,94,0.00,SCT,,0.00,0.0,WeatherDisplay:10.37,2013-07-18 09:16:00,
2013-07-18 05:21:00,77.2,75.3,30.09,NNW,335,0.0,0.0,94,0.00,SCT,,0.00,0.0,WeatherDisplay:10.37,2013-07-18 09:21:00,
2013-07-18 05:26:00,77.2,75.3,30.09,NNW,335,0.0,0.0,94,0.00,SCT,,0.00,0.0,WeatherDisplay:10.37,2013-07-18 09:26:00,
2013-07-18 05:31:00,77.0,75.1,30.09,NNW,335,0.0,0.0,94,0.00,SCT,,0.00,0.0,WeatherDisplay:10.37,2013-07-18 09:31:00,
2013-07-18 05:36:00,77.0,75.1,30.09,NNW,335,0.0,0.0,94,0.00,SCT,,0.00,0.0,WeatherDisplay:10.37,2013-07-18 09:36:00,
2013-07-18 05:41:00,77.0,75.1,30.09,NNW,335,0.0,0.0,94,0.00,SCT,,0.00,0.0,WeatherDisplay:10.37,2013-07-18 09:41:00,
2013-07-18 05:46:00,77.0,75.1,30.09,NNW,335,0.0,0.0,94,0.00,SCT,,0.00,0.0,WeatherDisplay:10.37,2013-07-18 09:46:00,
2013-07-18 05:51:00,77.0,75.1,30.09,NNW,335,0.0,0.0,94,0.00,SCT,,0.00,0.0,WeatherDisplay:10.37,2013-07-18 09:51:00,
2013-07-18 05:56:00,77.0,75.1,30.09,NNW,335,0.0,0.0,94,0.00,SCT,,0.00,0.0,WeatherDisplay:10.37,2013-07-18 09:56:00,
2013-07-18 06:01:00,77.0,75.1,30.09,NNW,335,0.0,0.0,94,0.00,SCT,,0.00,0.0,WeatherDisplay:10.37,2013-07-18 10:01:00,
2013-07-18 06:11:00,76.8,74.9,30.10,NNW,347,0.0,0.0,94,0.00,SCT,,0.00,0.0,WeatherDisplay:10.37,2013-07-18 10:11:00,
2013-07-18 06:16:00,76.8,74.9,30.10,North,356,0.0,0.0,94,0.00,SCT,,0.00,0.0,WeatherDisplay:10.37,2013-07-18 10:16:00,
2013-07-18 06:21:00,76.8,74.9,30.10,North,11,0.0,0.0,94,0.00,SCT,,0.00,5.8,WeatherDisplay:10.37,2013-07-18 10:21:00,
2013-07-18 06:26:00,76.7,74.9,30.10,SSE,163,0.0,0.0,94,0.00,SCT,,0.00,8.1,WeatherDisplay:10.37,2013-07-18 10:26:00,
2013-07-18 06:31:00,76.7,74.8,30.10,South,182,0.0,0.0,94,0.00,SCT,,0.00,12.7,WeatherDisplay:10.37,2013-07-18 10:31:00,
2013-07-18 06:36:00,76.7,74.8,30.11,South,182,0.0,0.0,94,0.00,SCT,,0.00,13.8,WeatherDisplay:10.37,2013-07-18 10:36:00,
2013-07-18 06:41:00,76.7,74.8,30.11,South,178,0.0,0.0,94,0.00,SCT,,0.00,16.1,WeatherDisplay:10.37,2013-07-18 10:41:00,
2013-07-18 06:46:00,76.7,74.8,30.11,SSE,151,0.0,0.0,94,0.00,SCT,,0.00,20.7,WeatherDisplay:10.37,2013-07-18 10:46:00,
2013-07-18 06:51:00,76.7,74.8,30.11,ESE,110,0.0,0.0,94,0.00,SCT,,0.00,24.1,WeatherDisplay:10.37,2013-07-18 10:51:00,
2013-07-18 06:56:00,76.7,74.8,30.11,East,98,0.0,0.0,94,0.00,SCT,,0.00,26.4,WeatherDisplay:10.37,2013-07-18 10:56:00,
2013-07-18 07:01:00,76.7,74.8,30.11,SE,131,0.0,0.0,94,0.00,BKN,,0.00,26.4,WeatherDisplay:10.37,2013-07-18 11:01:00,
2013-07-18 07:11:00,76.7,75.2,30.11,South,174,0.0,0.0,95,0.00,BKN,,0.00,28.8,WeatherDisplay:10.37,2013-07-18 11:11:00,
2013-07-18 07:16:00,76.7,75.2,30.11,South,174,0.0,0.0,95,0.00,BKN,,0.00,40.3,WeatherDisplay:10.37,2013-07-18 11:16:00,
2013-07-18 07:21:00,76.7,75.2,30.11,South,185,0.0,1.0,95,0.00,BKN,,0.00,46.0,WeatherDisplay:10.37,2013-07-18 11:21:00,
2013-07-18 07:26:00,76.7,75.2,30.11,SSW,209,0.0,0.0,95,0.00,BKN,,0.00,54.0,WeatherDisplay:10.37,2013-07-18 11:26:00,
2013-07-18 07:31:00,76.8,75.3,30.11,SSW,211,0.0,0.0,95,0.00,BKN,,0.00,56.4,WeatherDisplay:10.37,2013-07-18 11:31:00,
2013-07-18 07:36:00,76.8,75.3,30.12,SW,219,0.0,0.0,95,0.00,BKN,,0.00,56.4,WeatherDisplay:10.37,2013-07-18 11:36:00,
2013-07-18 07:41:00,76.8,75.3,30.12,SW,227,0.0,1.0,95,0.00,BKN,,0.00,56.4,WeatherDisplay:10.37,2013-07-18 11:41:00,
2013-07-18 07:46:00,77.0,75.5,30.12,SW,227,0.0,0.0,95,0.00,BKN,,0.00,62.1,WeatherDisplay:10.37,2013-07-18 11:46:00,
2013-07-18 07:51:00,77.0,75.5,30.12,SW,227,0.0,0.0,95,0.00,BKN,,0.00,69.0,WeatherDisplay:10.37,2013-07-18 11:51:00,
2013-07-18 07:56:00,77.2,75.7,30.12,SW,227,0.0,0.0,95,0.00,BKN,,0.00,77.0,WeatherDisplay:10.37,2013-07-18 11:56:00,
2013-07-18 08:01:00,77.2,75.7,30.12,SW,227,0.0,0.0,95,0.00,BKN,,0.00,85.1,WeatherDisplay:10.37,2013-07-18 12:01:00,
2013-07-18 08:11:00,77.4,75.9,30.12,SW,227,0.0,0.0,95,0.00,BKN,,0.00,151.8,WeatherDisplay:10.37,2013-07-18 12:11:00,
2013-07-18 08:16:00,77.6,76.1,30.12,SW,227,0.0,0.0,95,0.00,BKN,,0.00,221.9,WeatherDisplay:10.37,2013-07-18 12:16:00,
2013-07-18 08:21:00,77.7,76.2,30.12,SW,227,0.0,0.0,95,0.00,BKN,,0.00,187.4,WeatherDisplay:10.37,2013-07-18 12:21:00,
2013-07-18 08:26:00,77.9,76.7,30.12,SW,227,0.0,0.0,96,0.00,BKN,,0.00,205.8,WeatherDisplay:10.37,2013-07-18 12:26:00,
2013-07-18 08:31:00,78.1,76.9,30.12,SW,233,0.0,0.0,96,0.00,BKN,,0.00,271.4,WeatherDisplay:10.37,2013-07-18 12:31:00,
2013-07-18 08:36:00,78.3,77.1,30.12,West,269,0.0,0.0,96,0.00,BKN,,0.00,221.9,WeatherDisplay:10.37,2013-07-18 12:36:00,
2013-07-18 08:41:00,78.5,76.9,30.12,NW,305,0.0,0.0,95,0.00,BKN,,0.00,307.1,WeatherDisplay:10.37,2013-07-18 12:41:00,
2013-07-18 08:46:00,78.6,77.0,30.12,West,270,0.0,0.0,95,0.00,BKN,,0.00,357.6,WeatherDisplay:10.37,2013-07-18 12:46:00,
2013-07-18 08:51:00,79.0,77.4,30.12,SSW,210,0.0,0.0,95,0.00,BKN,,0.00,394.4,WeatherDisplay:10.37,2013-07-18 12:51:00,
2013-07-18 08:56:00,79.4,77.8,30.12,SSW,198,0.0,0.0,95,0.00,BKN,,0.00,277.1,WeatherDisplay:10.37,2013-07-18 12:56:00,
2013-07-18 09:01:00,79.6,77.7,30.12,South,187,0.0,0.0,94,0.00,BKN,,0.00,338.1,WeatherDisplay:10.37,2013-07-18 13:01:00,
2013-07-18 09:11:00,79.9,77.7,30.12,WSW,241,0.0,0.0,93,0.00,BKN,,0.00,430.1,WeatherDisplay:10.37,2013-07-18 13:11:00,
2013-07-18 09:16:00,80.2,77.7,30.12,SW,235,0.0,0.0,92,0.00,BKN,,0.00,381.8,WeatherDisplay:10.37,2013-07-18 13:16:00,
2013-07-18 09:21:00,80.5,77.3,30.12,South,170,0.0,0.0,90,0.00,BKN,,0.00,523.3,WeatherDisplay:10.37,2013-07-18 13:21:00,
2013-07-18 09:26:00,80.9,77.4,30.12,ESE,105,0.0,0.0,89,0.00,BKN,,0.00,504.9,WeatherDisplay:10.37,2013-07-18 13:26:00,
2013-07-18 09:31:00,81.2,77.0,30.12,ESE,105,0.0,0.0,87,0.00,BKN,,0.00,496.8,WeatherDisplay:10.37,2013-07-18 13:31:00,
2013-07-18 09:36:00,82.0,77.4,30.12,ESE,105,0.0,0.0,86,0.00,BKN,,0.00,560.0,WeatherDisplay:10.37,2013-07-18 13:36:00,
2013-07-18 09:41:00,82.9,77.5,30.12,ESE,105,0.0,0.0,84,0.00,BKN,,0.00,608.4,WeatherDisplay:10.37,2013-07-18 13:41:00,
2013-07-18 09:46:00,83.8,77.4,30.12,ESE,105,0.0,0.0,81,0.00,BKN,,0.00,613.0,WeatherDisplay:10.37,2013-07-18 13:46:00,
2013-07-18 09:56:00,84.7,77.1,30.12,SSE,157,0.0,0.0,78,0.00,BKN,,0.00,370.3,WeatherDisplay:10.37,2013-07-18 13:56:00,
2013-07-18 10:01:00,85.3,77.6,30.12,SSE,164,0.0,0.0,78,0.00,SCT,,0.00,656.6,WeatherDisplay:10.37,2013-07-18 14:01:00,
2013-07-18 10:11:00,85.9,77.1,30.12,SE,143,0.0,1.0,75,0.00,SCT,,0.00,679.6,WeatherDisplay:10.37,2013-07-18 14:11:00,
2013-07-18 10:16:00,86.5,77.6,30.12,SE,144,0.0,0.0,75,0.00,SCT,,0.00,647.5,WeatherDisplay:10.37,2013-07-18 14:16:00,
2013-07-18 10:21:00,87.0,78.1,30.12,ESE,113,0.0,0.0,75,0.00,SCT,,0.00,667.0,WeatherDisplay:10.37,2013-07-18 14:21:00,
2013-07-18 10:31:00,87.6,79.1,30.12,East,82,0.0,0.0,76,0.00,SCT,,0.00,746.4,WeatherDisplay:10.37,2013-07-18 14:31:00,
2013-07-18 10:36:00,87.6,77.9,30.12,East,82,0.0,0.0,73,0.00,SCT,,0.00,765.9,WeatherDisplay:10.37,2013-07-18 14:36:00,
2013-07-18 10:41:00,87.9,76.9,30.12,East,82,0.0,0.0,70,0.00,SCT,,0.00,776.3,WeatherDisplay:10.37,2013-07-18 14:41:00,
2013-07-18 10:46:00,88.3,76.9,30.12,East,87,0.0,0.0,69,0.00,SCT,,0.00,802.7,WeatherDisplay:10.37,2013-07-18 14:46:00,
2013-07-18 10:51:00,88.6,76.7,30.12,East,92,0.0,1.0,68,0.00,SCT,,0.00,818.8,WeatherDisplay:10.37,2013-07-18 14:51:00,
2013-07-18 10:56:00,89.3,78.2,30.12,ESE,106,0.0,4.0,70,0.00,SCT,,0.00,832.6,WeatherDisplay:10.37,2013-07-18 14:56:00,
2013-07-18 11:01:00,89.5,78.0,30.12,SSE,162,0.0,3.0,69,0.00,SCT,,0.00,848.7,WeatherDisplay:10.37,2013-07-18 15:01:00,
2013-07-18 11:11:00,90.0,78.0,30.12,South,181,0.0,0.0,68,0.00,SCT,,0.00,871.7,WeatherDisplay:10.37,2013-07-18 15:11:00,
2013-07-18 11:16:00,90.1,77.7,30.12,South,181,0.0,0.0,67,0.00,SCT,,0.00,887.8,WeatherDisplay:10.37,2013-07-18 15:16:00,
2013-07-18 11:21:00,90.1,75.8,30.12,South,181,0.0,0.0,63,0.00,SCT,,0.00,899.3,WeatherDisplay:10.37,2013-07-18 15:21:00,
2013-07-18 11:26:00,90.6,75.8,30.12,South,183,0.0,1.0,62,0.00,SCT,,0.00,914.3,WeatherDisplay:10.37,2013-07-18 15:26:00,
2013-07-18 11:31:00,91.0,78.1,30.12,SW,217,0.0,0.0,66,0.00,SCT,,0.00,928.0,WeatherDisplay:10.37,2013-07-18 15:31:00,
2013-07-18 11:36:00,91.2,77.8,30.12,WSW,258,0.0,0.0,65,0.00,SCT,,0.00,954.5,WeatherDisplay:10.37,2013-07-18 15:36:00,
2013-07-18 11:41:00,91.2,77.8,30.12,West,265,0.0,0.0,65,0.00,SCT,,0.00,981.0,WeatherDisplay:10.37,2013-07-18 15:41:00,
2013-07-18 11:46:00,91.2,76.4,30.12,SW,223,2.0,4.0,62,0.00,SCT,,0.00,972.9,WeatherDisplay:10.37,2013-07-18 15:46:00,
2013-07-18 11:51:00,91.0,77.1,30.12,SSW,198,1.0,2.0,64,0.00,SCT,,0.00,1005.1,WeatherDisplay:10.37,2013-07-18 15:51:00,
2013-07-18 11:56:00,91.0,77.1,30.12,SSW,198,0.0,1.0,64,0.00,SCT,,0.00,311.6,WeatherDisplay:10.37,2013-07-18 15:56:00,
2013-07-18 12:01:00,91.2,78.2,30.12,SSW,198,0.0,0.0,66,0.00,SCT,,0.00,1014.3,WeatherDisplay:10.37,2013-07-18 16:01:00,
2013-07-18 12:11:00,91.6,76.7,30.12,SSW,198,0.0,2.0,62,0.00,SCT,,0.00,1002.8,WeatherDisplay:10.37,2013-07-18 16:11:00,
2013-07-18 12:16:00,91.8,78.4,30.12,SSW,198,0.0,2.0,65,0.00,SCT,,0.00,234.6,WeatherDisplay:10.37,2013-07-18 16:16:00,
2013-07-18 12:21:00,91.7,74.8,30.11,SSW,198,0.0,1.0,58,0.00,SCT,,0.00,1029.3,WeatherDisplay:10.37,2013-07-18 16:21:00,
2013-07-18 12:26:00,91.8,77.4,30.11,SSW,198,0.0,1.0,63,0.00,SCT,,0.00,178.3,WeatherDisplay:10.37,2013-07-18 16:26:00,
2013-07-18 12:31:00,91.6,76.7,30.11,SSW,198,0.0,0.0,62,0.00,SCT,,0.00,272.6,WeatherDisplay:10.37,2013-07-18 16:31:00,
2013-07-18 12:36:00,91.2,77.8,30.12,SSW,198,0.0,0.0,65,0.00,SCT,,0.00,1114.3,WeatherDisplay:10.37,2013-07-18 16:36:00,
2013-07-18 12:41:00,90.7,77.8,30.12,SSW,192,0.0,0.0,66,0.00,SCT,,0.00,256.4,WeatherDisplay:10.37,2013-07-18 16:41:00,
2013-07-18 12:46:00,90.4,76.1,30.12,South,187,0.0,0.0,63,0.00,SCT,,0.00,1097.1,WeatherDisplay:10.37,2013-07-18 16:46:00,
2013-07-18 12:51:00,91.0,74.7,30.11,South,187,0.0,2.0,59,0.00,SCT,,0.00,1006.3,WeatherDisplay:10.37,2013-07-18 16:51:00,
2013-07-18 12:56:00,91.4,76.5,30.11,South,187,0.0,1.0,62,0.00,SCT,,0.00,162.2,WeatherDisplay:10.37,2013-07-18 16:56:00,
2013-07-18 13:01:00,91.4,76.5,30.11,South,186,0.0,2.0,62,0.00,SCT,,0.00,155.3,WeatherDisplay:10.37,2013-07-18 17:01:00,
2013-07-18 13:11:00,90.8,78.3,30.11,South,185,0.0,0.0,67,0.00,SCT,,0.00,317.4,WeatherDisplay:10.37,2013-07-18 17:11:00,
2013-07-18 13:16:00,90.5,75.7,30.11,South,185,0.0,0.0,62,0.00,SCT,,0.00,230.0,WeatherDisplay:10.37,2013-07-18 17:16:00,
2013-07-18 13:21:00,90.7,76.8,30.10,South,185,0.0,0.0,64,0.00,SCT,,0.00,197.8,WeatherDisplay:10.37,2013-07-18 17:21:00,
2013-07-18 13:26:00,90.5,76.2,30.10,South,185,0.0,0.0,63,0.00,SCT,,0.00,1079.8,WeatherDisplay:10.37,2013-07-18 17:26:00,
2013-07-18 13:31:00,91.2,76.8,30.10,South,185,0.0,1.0,63,0.00,SCT,,0.00,938.4,WeatherDisplay:10.37,2013-07-18 17:31:00,
2013-07-18 13:36:00,91.4,78.0,30.10,South,186,0.0,1.0,65,0.00,SCT,,0.00,938.4,WeatherDisplay:10.37,2013-07-18 17:36:00,
2013-07-18 13:41:00,91.6,76.7,30.10,SSW,202,0.0,2.0,62,0.00,SCT,,0.00,230.0,WeatherDisplay:10.37,2013-07-18 17:41:00,
2013-07-18 13:46:00,91.7,77.3,30.10,SW,217,0.0,0.0,63,0.00,SCT,,0.00,221.9,WeatherDisplay:10.37,2013-07-18 17:46:00,
2013-07-18 13:51:00,91.4,77.5,30.10,SW,217,0.0,0.0,64,0.00,SCT,,0.00,189.8,WeatherDisplay:10.37,2013-07-18 17:51:00,
2013-07-18 13:56:00,91.2,77.3,30.10,SW,217,0.0,0.0,64,0.00,SCT,,0.00,210.4,WeatherDisplay:10.37,2013-07-18 17:56:00,
2013-07-18 14:01:00,90.7,76.8,30.10,SW,217,0.0,0.0,64,0.00,SCT,,0.00,181.7,WeatherDisplay:10.37,2013-07-18 18:01:00,
2013-07-18 14:11:00,89.7,76.4,30.09,SW,217,0.0,0.0,65,0.00,SCT,,0.00,277.1,WeatherDisplay:10.37,2013-07-18 18:11:00,
2013-07-18 14:16:00,89.5,78.4,30.09,SSW,210,0.0,1.0,70,0.00,SCT,,0.00,1158.0,WeatherDisplay:10.37,2013-07-18 18:16:00,
2013-07-18 14:26:00,91.7,73.8,30.09,South,185,1.0,2.0,56,0.00,SCT,,0.00,1106.3,WeatherDisplay:10.37,2013-07-18 18:26:00,
2013-07-18 14:31:00,92.8,76.8,30.09,SSE,157,0.0,1.0,60,0.00,SCT,,0.00,1073.0,WeatherDisplay:10.37,2013-07-18 18:31:00,
2013-07-18 14:36:00,93.2,76.7,30.08,SSE,149,0.0,0.0,59,0.00,SCT,,0.00,412.9,WeatherDisplay:10.37,2013-07-18 18:36:00,
2013-07-18 14:41:00,93.4,77.9,30.08,SSE,149,0.0,0.0,61,0.00,SCT,,0.00,319.7,WeatherDisplay:10.37,2013-07-18 18:41:00,
2013-07-18 14:46:00,93.2,78.2,30.08,SSE,149,0.0,0.0,62,0.00,SCT,,0.00,1043.0,WeatherDisplay:10.37,2013-07-18 18:46:00,
2013-07-18 14:51:00,93.2,78.3,30.07,SSE,152,0.0,0.0,62,0.00,SCT,,0.00,258.8,WeatherDisplay:10.37,2013-07-18 18:51:00,
2013-07-18 14:56:00,93.2,78.2,30.07,SSE,160,0.0,0.0,62,0.00,SCT,,0.00,196.7,WeatherDisplay:10.37,2013-07-18 18:56:00,
2013-07-18 15:01:00,92.9,78.0,30.07,SE,146,0.0,1.0,62,0.00,BKN,,0.00,221.9,WeatherDisplay:10.37,2013-07-18 19:01:00,
2013-07-18 15:11:00,92.3,77.4,30.07,SSE,163,0.0,0.0,62,0.00,BKN,,0.00,179.4,WeatherDisplay:10.37,2013-07-18 19:11:00,
2013-07-18 15:16:00,92.1,77.7,30.07,SSW,212,0.0,0.0,63,0.00,BKN,,0.00,287.5,WeatherDisplay:10.37,2013-07-18 19:16:00,
2013-07-18 15:21:00,91.3,77.9,30.07,SSW,212,0.0,0.0,65,0.00,BKN,,0.00,941.9,WeatherDisplay:10.37,2013-07-18 19:21:00,
2013-07-18 15:26:00,91.2,75.4,30.07,SSW,212,0.0,1.0,60,0.00,BKN,,0.00,933.8,WeatherDisplay:10.37,2013-07-18 19:26:00,
2013-07-18 15:31:00,92.1,75.2,30.07,South,190,0.0,2.0,58,0.00,BKN,,0.00,893.5,WeatherDisplay:10.37,2013-07-18 19:31:00,
2013-07-18 15:36:00,92.7,75.2,30.06,ESE,115,0.0,2.0,57,0.00,BKN,,0.00,194.3,WeatherDisplay:10.37,2013-07-18 19:36:00,
2013-07-18 15:41:00,92.7,75.2,30.06,East,94,0.0,0.0,57,0.00,BKN,,0.00,208.2,WeatherDisplay:10.37,2013-07-18 19:41:00,
2013-07-18 15:51:00,92.3,76.9,30.06,East,94,0.0,0.0,61,0.00,BKN,,0.00,271.4,WeatherDisplay:10.37,2013-07-18 19:51:00,
2013-07-18 15:56:00,92.1,76.2,30.06,East,94,0.0,0.0,60,0.00,BKN,,0.00,226.6,WeatherDisplay:10.37,2013-07-18 19:56:00,
2013-07-18 16:01:00,91.8,76.0,30.06,East,94,0.0,0.0,60,0.00,-RA,,0.00,205.8,WeatherDisplay:10.37,2013-07-18 20:01:00,
2013-07-18 16:11:00,91.4,76.1,30.06,East,89,0.0,1.0,61,0.00,-RA,,0.00,202.4,WeatherDisplay:10.37,2013-07-18 20:11:00,
2013-07-18 16:16:00,91.0,76.7,30.06,WSW,254,0.0,0.0,63,0.00,BKN,,0.00,197.8,WeatherDisplay:10.37,2013-07-18 20:16:00,
2013-07-18 16:21:00,90.7,76.8,30.05,WSW,256,0.0,1.0,64,0.00,BKN,,0.00,368.0,WeatherDisplay:10.37,2013-07-18 20:21:00,
2013-07-18 16:26:00,90.7,76.4,30.05,West,262,0.0,2.0,63,0.00,BKN,,0.00,669.3,WeatherDisplay:10.37,2013-07-18 20:26:00,
2013-07-18 16:31:00,91.3,76.4,30.05,West,280,0.0,1.0,62,0.00,BKN,,0.00,638.3,WeatherDisplay:10.37,2013-07-18 20:31:00,
2013-07-18 16:36:00,91.8,77.9,30.05,NNW,346,0.0,2.0,64,0.00,BKN,,0.00,365.7,WeatherDisplay:10.37,2013-07-18 20:36:00,
2013-07-18 16:41:00,92.1,77.7,30.05,NNE,23,0.0,2.0,63,0.00,BKN,,0.00,549.7,WeatherDisplay:10.37,2013-07-18 20:41:00,
2013-07-18 16:46:00,92.3,75.9,30.05,ENE,72,0.0,2.0,59,0.00,BKN,,0.00,386.4,WeatherDisplay:10.37,2013-07-18 20:46:00,
2013-07-18 16:51:00,92.3,77.9,30.04,East,90,0.0,1.0,63,0.00,BKN,,0.00,523.3,WeatherDisplay:10.37,2013-07-18 20:51:00,
2013-07-18 16:56:00,92.3,78.8,30.04,East,92,0.0,0.0,65,0.00,BKN,,0.00,357.6,WeatherDisplay:10.37,2013-07-18 20:56:00,
2013-07-18 17:01:00,92.3,76.9,30.04,East,92,0.0,2.0,61,0.00,BKN,,0.00,224.3,WeatherDisplay:10.37,2013-07-18 21:01:00,
2013-07-18 17:11:00,92.3,78.4,30.04,East,92,0.0,0.0,64,0.00,BKN,,0.00,109.3,WeatherDisplay:10.37,2013-07-18 21:11:00,
2013-07-18 17:16:00,92.1,78.2,30.04,East,92,0.0,0.0,64,0.00,BKN,,0.00,98.9,WeatherDisplay:10.37,2013-07-18 21:16:00,
2013-07-18 17:21:00,91.8,77.9,30.04,East,92,0.0,0.0,64,0.00,BKN,,0.00,162.2,WeatherDisplay:10.37,2013-07-18 21:21:00,
2013-07-18 17:26:00,91.6,78.2,30.04,East,92,0.0,0.0,65,0.00,BKN,,0.00,230.0,WeatherDisplay:10.37,2013-07-18 21:26:00,
2013-07-18 17:31:00,91.1,79.1,30.04,East,92,0.0,0.0,68,0.00,BKN,,0.00,192.1,WeatherDisplay:10.37,2013-07-18 21:31:00,
2013-07-18 17:36:00,90.7,79.1,30.03,East,92,0.0,0.0,69,0.00,BKN,,0.00,159.8,WeatherDisplay:10.37,2013-07-18 21:36:00,
2013-07-18 17:41:00,90.5,78.5,30.03,East,92,0.0,0.0,68,0.00,BKN,,0.00,96.6,WeatherDisplay:10.37,2013-07-18 21:41:00,
2013-07-18 17:46:00,90.3,78.7,30.03,East,92,0.0,1.0,69,0.00,BKN,,0.00,87.4,WeatherDisplay:10.37,2013-07-18 21:46:00,
2013-07-18 17:51:00,89.9,77.9,30.03,East,92,0.0,2.0,68,0.00,BKN,,0.00,66.7,WeatherDisplay:10.37,2013-07-18 21:51:00,
2013-07-18 17:56:00,89.5,77.5,30.03,ENE,69,0.0,2.0,68,0.00,BKN,,0.00,79.3,WeatherDisplay:10.37,2013-07-18 21:56:00,
2013-07-18 18:01:00,88.8,77.3,30.03,East,88,0.0,3.0,69,0.00,BKN,,0.00,93.2,WeatherDisplay:10.37,2013-07-18 22:01:00,
2013-07-18 18:11:00,88.1,76.6,30.03,NE,51,1.0,5.0,69,0.00,BKN,,0.00,98.9,WeatherDisplay:10.37,2013-07-18 22:11:00,
2013-07-18 18:16:00,87.6,76.2,30.03,NNE,22,0.0,5.0,69,0.00,BKN,,0.00,104.7,WeatherDisplay:10.37,2013-07-18 22:16:00,
2013-07-18 18:21:00,87.3,75.9,30.03,NNE,13,2.0,5.0,69,0.00,BKN,,0.00,61.0,WeatherDisplay:10.37,2013-07-18 22:21:00,
2013-07-18 18:26:00,87.0,76.0,30.03,NNE,26,0.0,1.0,70,0.00,BKN,,0.00,48.3,WeatherDisplay:10.37,2013-07-18 22:26:00,
2013-07-18 18:31:00,86.7,76.2,30.03,NE,34,0.0,1.0,71,0.00,BKN,,0.00,28.8,WeatherDisplay:10.37,2013-07-18 22:31:00,
2013-07-18 18:36:00,86.5,76.4,30.04,ENE,74,0.0,1.0,72,0.00,BKN,,0.00,32.2,WeatherDisplay:10.37,2013-07-18 22:36:00,
2013-07-18 18:41:00,86.3,76.2,30.04,NE,51,1.0,5.0,72,0.00,BKN,,0.00,18.4,WeatherDisplay:10.37,2013-07-18 22:41:00,
2013-07-18 18:46:00,86.0,76.4,30.04,NNW,335,0.0,1.0,73,0.00,BKN,,0.00,18.4,WeatherDisplay:10.37,2013-07-18 22:46:00,
2013-07-18 18:51:00,85.8,76.5,30.04,NNW,339,1.0,3.0,74,0.00,BKN,,0.00,16.1,WeatherDisplay:10.37,2013-07-18 22:51:00,
2013-07-18 18:56:00,85.4,76.2,30.04,NNE,12,0.0,0.0,74,0.00,BKN,,0.00,18.4,WeatherDisplay:10.37,2013-07-18 22:56:00,
2013-07-18 19:01:00,85.1,76.3,30.04,NNE,19,0.0,0.0,75,0.00,SCT,,0.00,36.8,WeatherDisplay:10.37,2013-07-18 23:01:00,
2013-07-18 19:11:00,84.5,76.9,30.04,NNE,19,0.0,0.0,78,0.00,SCT,,0.00,52.9,WeatherDisplay:10.37,2013-07-18 23:11:00,
2013-07-18 19:16:00,84.2,77.0,30.04,NNE,19,0.0,0.0,79,0.00,SCT,,0.00,69.0,WeatherDisplay:10.37,2013-07-18 23:16:00,
2013-07-18 19:21:00,84.1,77.3,30.04,NNE,19,0.0,0.0,80,0.00,SCT,,0.00,54.0,WeatherDisplay:10.37,2013-07-18 23:21:00,
2013-07-18 19:26:00,84.0,77.2,30.04,NE,41,0.0,0.0,80,0.00,SCT,,0.00,48.3,WeatherDisplay:10.37,2013-07-18 23:26:00,
2013-07-18 19:31:00,83.8,77.3,30.04,SSE,150,0.0,0.0,81,0.00,SCT,,0.00,29.9,WeatherDisplay:10.37,2013-07-18 23:31:00,
2013-07-18 19:36:00,83.8,77.3,30.04,South,182,0.0,0.0,81,0.00,SCT,,0.00,24.1,WeatherDisplay:10.37,2013-07-18 23:36:00,
2013-07-18 19:41:00,83.6,77.1,30.04,South,171,0.0,0.0,81,0.00,SCT,,0.00,16.1,WeatherDisplay:10.37,2013-07-18 23:41:00,
2013-07-18 19:46:00,83.6,77.5,30.04,SSE,167,0.0,0.0,82,0.00,SCT,,0.00,8.1,WeatherDisplay:10.37,2013-07-18 23:46:00,
2013-07-18 19:51:00,83.4,77.3,30.05,SSE,167,0.0,0.0,82,0.00,SCT,,0.00,0.0,WeatherDisplay:10.37,2013-07-18 23:51:00,
2013-07-18 19:56:00,83.4,77.7,30.05,SSE,167,0.0,0.0,83,0.00,SCT,,0.00,0.0,WeatherDisplay:10.37,2013-07-18 23:56:00,
2013-07-18 20:01:00,83.2,77.1,30.05,SSE,167,0.0,0.0,82,0.00,BKN,,0.00,0.0,WeatherDisplay:10.37,2013-07-19 00:01:00,
2013-07-18 20:11:00,83.0,77.3,30.05,SSE,150,0.0,0.0,83,0.00,BKN,,0.00,0.0,WeatherDisplay:10.37,2013-07-19 00:11:00,
2013-07-18 20:16:00,82.8,77.1,30.05,SSE,147,0.0,0.0,83,0.00,BKN,,0.00,0.0,WeatherDisplay:10.37,2013-07-19 00:16:00,
2013-07-18 20:21:00,82.6,76.9,30.05,ENE,60,0.0,0.0,83,0.01,RA,,0.01,0.0,WeatherDisplay:10.37,2013-07-19 00:21:00,
2013-07-18 20:26:00,82.6,76.9,30.05,NNW,334,0.0,0.0,83,0.01,RA,,0.01,0.0,WeatherDisplay:10.37,2013-07-19 00:26:00,
2013-07-18 20:31:00,82.4,76.7,30.05,NNW,334,0.0,0.0,83,0.01,BKN,,0.01,0.0,WeatherDisplay:10.37,2013-07-19 00:31:00,
2013-07-18 20:36:00,82.2,76.5,30.06,NNW,334,0.0,0.0,83,0.01,BKN,,0.01,0.0,WeatherDisplay:10.37,2013-07-19 00:36:00,
2013-07-18 20:41:00,82.2,76.5,30.06,NNW,334,0.0,0.0,83,0.01,BKN,,0.01,0.0,WeatherDisplay:10.37,2013-07-19 00:41:00,
2013-07-18 20:46:00,82.0,76.7,30.06,NNW,334,0.0,0.0,84,0.01,BKN,,0.01,0.0,WeatherDisplay:10.37,2013-07-19 00:46:00,
2013-07-18 20:51:00,82.0,76.7,30.06,NNW,334,0.0,0.0,84,0.01,BKN,,0.01,0.0,WeatherDisplay:10.37,2013-07-19 00:51:00,
2013-07-18 21:01:00,81.8,76.5,30.06,NNW,334,0.0,0.0,84,0.01,SCT,,0.01,0.0,WeatherDisplay:10.37,2013-07-19 01:01:00,
2013-07-18 21:11:00,81.5,76.2,30.06,NNW,334,0.0,0.0,84,0.01,SCT,,0.01,0.0,WeatherDisplay:10.37,2013-07-19 01:11:00,
2013-07-18 21:16:00,81.4,76.1,30.06,NNW,334,0.0,0.0,84,0.01,SCT,,0.01,0.0,WeatherDisplay:10.37,2013-07-19 01:16:00,
2013-07-18 21:21:00,81.2,75.9,30.06,NNW,334,0.0,0.0,84,0.00,SCT,,0.01,0.0,WeatherDisplay:10.37,2013-07-19 01:21:00,
2013-07-18 21:31:00,81.1,76.2,30.06,NNW,333,0.0,0.0,85,0.00,SCT,,0.01,0.0,WeatherDisplay:10.37,2013-07-19 01:31:00,
2013-07-18 21:36:00,81.1,76.2,30.06,NNW,333,0.0,0.0,85,0.00,SCT,,0.01,0.0,WeatherDisplay:10.37,2013-07-19 01:36:00,
2013-07-18 21:41:00,80.9,76.0,30.06,NNW,333,0.0,0.0,85,0.00,SCT,,0.01,0.0,WeatherDisplay:10.37,2013-07-19 01:41:00,
2013-07-18 21:46:00,80.9,76.0,30.06,NNW,333,0.0,0.0,85,0.00,SCT,,0.01,0.0,WeatherDisplay:10.37,2013-07-19 01:46:00,
2013-07-18 21:51:00,80.7,75.8,30.07,NNW,333,0.0,0.0,85,0.00,SCT,,0.01,0.0,WeatherDisplay:10.37,2013-07-19 01:51:00,
2013-07-18 21:56:00,80.6,75.6,30.07,NNW,333,0.0,0.0,85,0.00,SCT,,0.01,0.0,WeatherDisplay:10.37,2013-07-19 01:56:00,
2013-07-18 22:01:00,80.5,75.6,30.07,NNW,333,0.0,0.0,85,0.00,SCT,,0.01,0.0,WeatherDisplay:10.37,2013-07-19 02:01:00,
2013-07-18 22:11:00,80.3,75.4,30.08,NNW,333,0.0,0.0,85,0.00,SCT,,0.01,0.0,WeatherDisplay:10.37,2013-07-19 02:11:00,
2013-07-18 22:16:00,80.3,75.4,30.08,NNW,333,0.0,0.0,85,0.00,SCT,,0.01,0.0,WeatherDisplay:10.37,2013-07-19 02:16:00,
2013-07-18 22:26:00,80.1,75.5,30.08,NNW,333,0.0,0.0,86,0.00,SCT,,0.01,0.0,WeatherDisplay:10.37,2013-07-19 02:26:00,
2013-07-18 22:31:00,79.9,75.3,30.08,NNW,333,0.0,0.0,86,0.00,SCT,,0.01,0.0,WeatherDisplay:10.37,2013-07-19 02:31:00,
2013-07-18 22:36:00,79.9,75.3,30.08,NNW,333,0.0,0.0,86,0.00,SCT,,0.01,0.0,WeatherDisplay:10.37,2013-07-19 02:36:00,
2013-07-18 22:41:00,79.8,75.2,30.08,NNW,333,0.0,0.0,86,0.00,SCT,,0.01,0.0,WeatherDisplay:10.37,2013-07-19 02:41:00,
2013-07-18 22:46:00,79.8,75.6,30.08,NNW,333,0.0,0.0,87,0.00,SCT,,0.01,0.0,WeatherDisplay:10.37,2013-07-19 02:46:00,
2013-07-18 22:51:00,79.7,75.5,30.09,NNW,333,0.0,0.0,87,0.00,SCT,,0.01,0.0,WeatherDisplay:10.37,2013-07-19 02:51:00,
2013-07-18 23:01:00,79.6,75.4,30.09,NNW,333,0.0,0.0,87,0.00,FEW,,0.01,0.0,WeatherDisplay:10.37,2013-07-19 03:01:00,
2013-07-18 23:11:00,79.4,75.2,30.08,NNW,333,0.0,0.0,87,0.00,FEW,,0.01,0.0,WeatherDisplay:10.37,2013-07-19 03:11:00,
2013-07-18 23:16:00,79.4,75.2,30.08,NNW,333,0.0,0.0,87,0.00,FEW,,0.01,0.0,WeatherDisplay:10.37,2013-07-19 03:16:00,
2013-07-18 23:21:00,79.4,75.2,30.09,NNW,333,0.0,0.0,87,0.00,FEW,,0.01,0.0,WeatherDisplay:10.37,2013-07-19 03:21:00,
2013-07-18 23:26:00,79.3,75.5,30.09,NNW,333,0.0,0.0,88,0.00,FEW,,0.01,0.0,WeatherDisplay:10.37,2013-07-19 03:26:00,
2013-07-18 23:31:00,79.4,75.5,30.09,NNW,333,0.0,0.0,88,0.00,FEW,,0.01,0.0,WeatherDisplay:10.37,2013-07-19 03:31:00,
2013-07-18 23:36:00,79.2,75.3,30.09,NNW,333,0.0,0.0,88,0.00,FEW,,0.01,0.0,WeatherDisplay:10.37,2013-07-19 03:36:00,
2013-07-18 23:41:00,79.2,75.3,30.09,NNW,333,0.0,0.0,88,0.00,FEW,,0.01,0.0,WeatherDisplay:10.37,2013-07-19 03:41:00,
2013-07-18 23:46:00,79.2,75.3,30.09,NNW,333,0.0,0.0,88,0.00,FEW,,0.01,0.0,WeatherDisplay:10.37,2013-07-19 03:46:00,
2013-07-18 23:51:00,79.2,75.6,30.09,NNW,333,0.0,0.0,89,0.00,FEW,,0.01,0.0,WeatherDisplay:10.37,2013-07-19 03:51:00,
2013-07-18 23:56:00,79.0,75.5,30.09,NNW,333,0.0,0.0,89,0.00,FEW,,0.01,0.0,WeatherDisplay:10.37,2013-07-19 03:56:00,